createdAt,value
2022-07-29T00:12:40.311Z,2.60
2022-07-29T00:45:58.770Z,2.38
2022-07-29T01:19:23.330Z,2.33
2022-07-29T02:22:46.631Z,2.28
2022-07-29T02:25:48.202Z,2.20
2022-07-29T03:29:50.022Z,1.90
2022-07-29T03:32:24.075Z,2.00
2022-07-29T03:34:55.441Z,2.10
2022-07-29T03:37:23.594Z,2.17
2022-07-29T03:39:54.838Z,2.63
2022-07-29T03:42:28.913Z,2.50
2022-07-29T03:45:04.308Z,2.60
2022-07-29T03:47:50.036Z,2.97
2022-07-29T03:50:22.790Z,2.50
2022-07-29T03:52:52.377Z,2.55
2022-07-29T03:55:40.784Z,2.10
2022-07-29T03:58:14.122Z,2.42
2022-07-29T04:00:46.237Z,2.38
2022-07-29T04:03:15.719Z,2.58
2022-07-29T04:05:47.501Z,2.17
2022-07-29T04:08:17.558Z,2.70
2022-07-29T04:10:48.279Z,2.65
2022-07-29T04:13:18.633Z,2.35
2022-07-29T04:15:47.889Z,2.70
2022-07-29T04:18:16.000Z,2.58
2022-07-29T04:20:46.364Z,2.38
2022-07-29T04:23:31.249Z,2.30
2022-07-29T04:26:04.013Z,2.20
2022-07-29T04:28:32.809Z,2.22
2022-07-29T04:31:02.618Z,2.50
2022-07-29T04:33:32.433Z,2.65
2022-07-29T04:36:29.234Z,2.60
2022-07-29T04:39:04.693Z,2.45
2022-07-29T04:41:34.628Z,2.60
2022-07-29T04:44:08.809Z,2.67
2022-07-29T04:47:00.222Z,2.75
2022-07-29T04:49:30.102Z,2.15
2022-07-29T04:51:59.302Z,2.50
2022-07-29T04:54:27.822Z,2.30
2022-07-29T04:56:55.751Z,2.53
2022-07-29T04:59:24.383Z,2.40
2022-07-29T05:04:51.777Z,2.20
2022-07-29T05:07:30.416Z,2.50
2022-07-29T05:09:59.923Z,2.55
2022-07-29T05:12:29.756Z,2.22
2022-07-29T05:14:58.775Z,2.60
2022-07-29T05:17:27.569Z,2.75
2022-07-29T05:19:55.796Z,2.70
2022-07-29T05:22:25.314Z,2.30
2022-07-29T05:24:54.219Z,2.38
2022-07-29T05:27:41.744Z,2.20
2022-07-29T05:30:12.601Z,2.25
2022-07-29T05:32:42.467Z,2.20
2022-07-29T05:35:12.402Z,2.35
2022-07-29T05:37:42.561Z,2.47
2022-07-29T05:40:12.907Z,3.03
2022-07-29T05:42:43.167Z,2.80
2022-07-29T05:45:12.400Z,2.80
2022-07-29T05:47:42.765Z,2.70
2022-07-29T05:50:12.475Z,2.50
2022-07-29T05:52:42.733Z,2.45
2022-07-29T05:55:12.860Z,2.50
2022-07-29T05:57:44.071Z,2.25
2022-07-29T06:00:17.755Z,2.83
2022-07-29T06:02:46.710Z,2.35
2022-07-29T06:05:18.365Z,2.58
2022-07-29T06:07:50.232Z,2.80
2022-07-29T06:11:07.794Z,2.33
2022-07-29T06:13:38.311Z,2.45
2022-07-29T06:16:08.222Z,2.70
2022-07-29T06:18:38.639Z,2.35
2022-07-29T06:21:12.516Z,2.63
2022-07-29T06:26:28.470Z,2.60
2022-07-29T06:29:00.384Z,2.50
2022-07-29T06:31:29.973Z,2.47
2022-07-29T06:33:58.736Z,2.70
2022-07-29T06:36:27.861Z,2.38
2022-07-29T06:39:03.538Z,2.50
2022-07-29T06:41:32.151Z,2.35
2022-07-29T06:44:07.061Z,2.40
2022-07-29T06:46:35.738Z,2.33
2022-07-29T06:49:06.218Z,2.28
2022-07-29T06:51:35.488Z,2.40
2022-07-29T06:54:07.474Z,2.25
2022-07-29T06:56:40.522Z,2.40
2022-07-29T06:59:12.873Z,2.17
2022-07-29T07:01:55.552Z,2.20
2022-07-29T07:04:24.379Z,2.08
2022-07-29T07:06:54.096Z,2.38
2022-07-29T07:09:22.611Z,2.38
2022-07-29T07:11:52.069Z,2.20
2022-07-29T07:14:20.778Z,2.30
2022-07-29T07:16:50.862Z,2.53
2022-07-29T07:19:22.156Z,2.35
2022-07-29T07:21:51.344Z,2.22
2022-07-29T07:24:19.905Z,2.42
2022-07-29T07:27:04.027Z,2.40
2022-07-29T07:29:35.242Z,2.53
2022-07-29T07:32:04.233Z,2.28
2022-07-29T07:34:34.311Z,2.30
2022-07-29T07:37:03.648Z,2.42
2022-07-29T07:39:39.537Z,2.40
2022-07-29T07:42:15.544Z,2.20
2022-07-29T07:45:11.948Z,2.20
2022-07-29T07:48:04.044Z,2.33
2022-07-29T07:50:32.076Z,2.35
2022-07-29T07:53:03.944Z,2.53
2022-07-29T07:56:12.818Z,2.47
2022-07-29T07:58:46.169Z,2.60
2022-07-29T08:01:15.288Z,2.28
2022-07-29T08:04:17.364Z,2.47
2022-07-29T08:06:47.517Z,2.40
2022-07-29T08:09:28.730Z,2.28
2022-07-29T08:12:00.865Z,2.03
2022-07-29T08:14:32.840Z,2.50
2022-07-29T08:17:03.261Z,2.47
2022-07-29T08:19:32.175Z,2.47
2022-07-29T08:22:01.977Z,2.47
2022-07-29T08:24:46.099Z,3.00
2022-07-29T08:27:41.795Z,2.70
2022-07-29T08:30:16.131Z,2.70
2022-07-29T08:32:55.739Z,2.47
2022-07-29T08:35:26.539Z,2.80
2022-07-29T08:37:56.252Z,2.78
2022-07-29T08:40:30.553Z,2.20
2022-07-29T08:43:10.065Z,2.33
2022-07-29T08:45:53.126Z,2.10
2022-07-29T08:48:24.012Z,2.13
2022-07-29T08:50:58.422Z,1.88
2022-07-29T08:53:32.461Z,2.10
2022-07-29T08:56:02.410Z,2.05
2022-07-29T08:58:36.933Z,2.30
2022-07-29T09:01:16.141Z,2.20
2022-07-29T09:04:08.470Z,2.38
2022-07-29T09:06:53.994Z,2.42
2022-07-29T09:09:22.550Z,2.55
2022-07-29T09:11:51.799Z,2.50
2022-07-29T09:14:22.693Z,2.30
2022-07-29T09:16:53.855Z,2.13
2022-07-29T09:19:25.865Z,2.30
2022-07-29T09:22:03.062Z,2.50
2022-07-29T09:24:42.022Z,2.30
2022-07-29T09:27:12.375Z,2.58
2022-07-29T09:29:43.183Z,2.33
2022-07-29T09:32:12.908Z,2.47
2022-07-29T09:34:43.026Z,2.50
2022-07-29T09:37:15.568Z,2.38
2022-07-29T09:39:55.103Z,2.38
2022-07-29T09:42:36.045Z,2.10
2022-07-29T09:45:10.010Z,1.98
2022-07-29T09:47:51.750Z,2.00
2022-07-29T09:50:32.682Z,2.10
2022-07-29T09:53:06.637Z,1.85
2022-07-29T09:55:54.841Z,2.28
2022-07-29T09:58:24.923Z,2.35
2022-07-29T10:00:56.794Z,2.38
2022-07-29T10:03:28.896Z,2.20
2022-07-29T10:06:12.452Z,2.13
2022-07-29T10:08:48.539Z,2.33
2022-07-29T10:11:20.898Z,2.00
2022-07-29T10:13:52.827Z,2.28
2022-07-29T10:16:24.844Z,2.38
2022-07-29T10:18:57.125Z,2.38
2022-07-29T10:21:36.006Z,2.33
2022-07-29T10:24:15.050Z,2.17
2022-07-29T10:26:48.850Z,2.60
2022-07-29T10:29:21.485Z,2.38
2022-07-29T10:32:09.006Z,2.22
2022-07-29T10:35:01.842Z,2.47
2022-07-29T10:37:51.173Z,2.65
2022-07-29T10:40:57.371Z,2.63
2022-07-29T10:43:39.076Z,2.50
2022-07-29T10:46:18.986Z,2.50
2022-07-29T10:49:10.254Z,2.35
2022-07-29T10:52:00.880Z,2.00
2022-07-29T10:54:37.320Z,2.38
2022-07-29T10:57:16.548Z,2.45
2022-07-29T10:59:55.526Z,2.20
2022-07-29T11:02:41.720Z,2.13
2022-07-29T11:05:20.329Z,2.50
2022-07-29T11:08:16.184Z,2.20
2022-07-29T11:10:55.482Z,2.40
2022-07-29T11:13:55.784Z,2.20
2022-07-29T11:16:30.732Z,2.13
2022-07-29T11:19:16.507Z,2.30
2022-07-29T11:21:58.401Z,2.20
2022-07-29T11:24:38.754Z,2.20
2022-07-29T11:27:28.640Z,2.20
2022-07-29T11:30:05.048Z,2.30
2022-07-29T11:32:41.158Z,2.10
2022-07-29T11:38:28.076Z,2.20
2022-07-29T11:41:20.917Z,2.47
2022-07-29T11:44:04.423Z,2.40
2022-07-29T11:46:54.974Z,2.40
2022-07-29T11:49:33.310Z,2.30
2022-07-29T11:52:08.157Z,2.67
2022-07-29T11:54:57.476Z,2.40
2022-07-29T12:00:45.174Z,1.73
2022-07-29T12:03:52.702Z,2.13
2022-07-29T12:06:25.162Z,2.30
2022-07-29T12:09:20.644Z,2.58
2022-07-29T12:11:56.058Z,2.33
2022-07-29T12:14:32.682Z,2.70
2022-07-29T12:17:30.598Z,2.50
2022-07-29T12:51:20.345Z,2.20
2022-07-29T12:54:11.063Z,2.75
2022-07-29T12:56:50.074Z,2.55
2022-07-29T12:59:23.167Z,2.50
2022-07-29T13:01:55.225Z,2.72
2022-07-29T13:04:33.632Z,2.70
2022-07-29T13:07:07.814Z,2.50
2022-07-29T13:09:44.967Z,2.70
2022-07-29T13:12:47.827Z,2.30
2022-07-29T13:15:19.537Z,2.20
2022-07-29T13:17:51.099Z,2.53
2022-07-29T13:20:27.501Z,2.50
2022-07-29T13:23:00.982Z,2.45
2022-07-29T13:25:59.049Z,2.33
2022-07-29T13:28:32.945Z,2.40
2022-07-29T13:31:04.816Z,2.70
2022-07-29T13:36:16.704Z,2.50
2022-07-29T13:38:50.055Z,2.60
2022-07-29T13:41:20.581Z,2.58
2022-07-29T13:43:52.756Z,2.70
2022-07-29T13:46:29.076Z,2.60
2022-07-29T13:49:03.183Z,2.75
2022-07-29T13:51:35.349Z,2.73
2022-07-29T13:54:20.583Z,2.50
2022-07-29T13:56:53.502Z,2.70
2022-07-29T13:59:27.511Z,2.90
2022-07-29T14:01:57.325Z,2.70
2022-07-29T14:04:31.258Z,2.97
2022-07-29T14:07:03.977Z,2.88
2022-07-29T14:09:41.407Z,3.10
2022-07-29T14:12:51.518Z,2.80
2022-07-29T14:15:41.165Z,2.85
2022-07-29T14:18:18.768Z,2.72
2022-07-29T14:20:50.944Z,2.80
2022-07-29T14:23:20.872Z,2.88
2022-07-29T14:25:51.675Z,3.05
2022-07-29T14:28:20.436Z,3.00
2022-07-29T14:30:51.168Z,3.03
2022-07-29T14:33:20.802Z,3.20
2022-07-29T14:35:50.738Z,2.60
2022-07-29T14:38:20.207Z,2.85
2022-07-29T14:40:50.882Z,3.03
2022-07-29T14:43:20.864Z,2.83
2022-07-29T14:46:13.022Z,3.22
2022-07-29T14:48:46.892Z,2.75
2022-07-29T14:51:16.486Z,2.70
2022-07-29T14:53:48.089Z,3.00
2022-07-29T14:56:35.898Z,3.10
2022-07-29T14:59:07.499Z,3.22
2022-07-29T15:01:36.300Z,3.30
2022-07-29T15:04:05.249Z,3.08
2022-07-29T15:06:35.924Z,3.10
2022-07-29T15:09:05.017Z,3.40
2022-07-29T15:11:37.879Z,3.10
2022-07-29T15:14:36.066Z,2.90
2022-07-29T15:17:33.301Z,3.03
2022-07-29T15:20:07.050Z,3.17
2022-07-29T15:22:38.533Z,3.15
2022-07-29T15:25:08.806Z,3.05
2022-07-29T15:27:38.947Z,2.88
2022-07-29T15:30:32.743Z,3.10
2022-07-29T15:33:06.805Z,3.00
2022-07-29T15:35:40.217Z,3.28
2022-07-29T15:38:15.217Z,3.45
2022-07-29T15:40:48.246Z,3.08
2022-07-29T15:43:18.602Z,3.30
2022-07-29T15:46:08.012Z,3.30
2022-07-29T15:48:41.231Z,3.38
2022-07-29T15:51:15.185Z,3.38
2022-07-29T15:53:53.255Z,3.40
2022-07-29T15:56:26.881Z,3.53
2022-07-29T15:59:22.091Z,3.35
2022-07-29T16:01:52.063Z,3.08
2022-07-29T16:04:23.096Z,3.20
2022-07-29T16:06:53.029Z,3.35
2022-07-29T16:12:16.375Z,2.80
2022-07-29T16:14:52.840Z,3.17
2022-07-29T16:17:24.799Z,3.58
2022-07-29T16:19:57.032Z,3.50
2022-07-29T16:22:27.499Z,3.58
2022-07-29T16:25:58.773Z,3.60
2022-07-29T16:28:22.941Z,3.55
2022-07-29T16:30:53.117Z,3.80
2022-07-29T16:33:27.821Z,3.97
2022-07-29T16:35:59.177Z,3.85
2022-07-29T16:38:29.144Z,4.00
2022-07-29T16:41:01.239Z,3.90
2022-07-29T16:43:32.942Z,3.50
2022-07-29T16:46:07.003Z,3.85
2022-07-29T16:48:40.499Z,4.20
2022-07-29T16:51:27.371Z,4.00
2022-07-29T16:53:59.178Z,3.95
2022-07-29T16:56:34.889Z,3.95
2022-07-29T16:59:06.640Z,4.07
2022-07-29T17:04:23.058Z,3.95
2022-07-29T17:06:53.121Z,4.05
2022-07-29T17:09:24.039Z,4.25
2022-07-29T17:11:56.697Z,3.80
2022-07-29T17:14:30.931Z,4.45
2022-07-29T17:17:03.002Z,4.10
2022-07-29T17:19:35.597Z,4.43
2022-07-29T17:22:15.880Z,4.00
2022-07-29T17:27:19.490Z,3.72
2022-07-29T17:29:48.602Z,4.10
2022-07-29T17:32:18.773Z,4.40
2022-07-29T17:34:48.455Z,4.32
2022-07-29T17:37:18.698Z,4.07
2022-07-29T17:39:48.374Z,4.05
2022-07-29T17:42:19.345Z,4.30
2022-07-29T17:44:51.092Z,4.43
2022-07-29T17:47:47.814Z,4.47
2022-07-29T17:50:16.560Z,4.43
2022-07-29T17:52:47.094Z,4.53
2022-07-29T17:55:16.453Z,4.00
2022-07-29T17:57:49.098Z,4.00
2022-07-29T18:00:19.694Z,4.55
2022-07-29T18:02:50.653Z,4.05
2022-07-29T18:05:21.131Z,4.20
2022-07-29T18:07:52.489Z,4.03
2022-07-29T18:10:24.955Z,4.50
2022-07-29T18:12:56.338Z,4.07
2022-07-29T18:15:26.753Z,4.07
2022-07-29T18:17:57.985Z,4.20
2022-07-29T18:20:34.860Z,4.57
2022-07-29T18:23:08.006Z,4.40
2022-07-29T18:25:37.079Z,3.90
2022-07-29T18:28:08.291Z,4.00
2022-07-29T18:30:39.210Z,4.20
2022-07-29T18:33:21.289Z,4.10
2022-07-29T18:36:11.212Z,4.15
2022-07-29T18:38:44.791Z,4.45
2022-07-29T18:41:33.487Z,4.30
2022-07-29T18:44:07.171Z,3.88
2022-07-29T18:46:37.060Z,4.05
2022-07-29T18:49:15.275Z,4.25
2022-07-29T18:51:50.905Z,4.03
2022-07-29T18:54:20.893Z,4.03
2022-07-29T18:56:52.710Z,4.18
2022-07-29T18:59:26.081Z,4.00
2022-07-29T19:01:59.047Z,4.40
2022-07-29T19:04:28.941Z,4.28
2022-07-29T19:07:06.874Z,4.72
2022-07-29T19:09:49.246Z,4.60
2022-07-29T19:12:20.462Z,4.43
2022-07-29T19:18:07.127Z,4.40
2022-07-29T19:20:40.539Z,4.72
2022-07-29T19:24:05.821Z,4.45
2022-07-29T19:26:40.557Z,4.50
2022-07-29T19:29:18.459Z,4.53
2022-07-29T19:31:48.455Z,5.07
2022-07-29T19:34:18.971Z,5.05
2022-07-29T19:37:16.988Z,4.90
2022-07-29T19:39:50.212Z,4.47
2022-07-29T19:42:20.327Z,4.55
2022-07-29T19:44:49.411Z,4.63
2022-07-29T19:47:24.675Z,5.07
2022-07-29T19:49:57.505Z,4.72
2022-07-29T19:52:41.914Z,4.65
2022-07-29T19:55:17.233Z,4.68
2022-07-29T19:57:51.779Z,4.82
2022-07-29T20:00:21.231Z,4.57
2022-07-29T20:02:53.289Z,4.80
2022-07-29T20:05:29.423Z,5.03
2022-07-29T20:08:03.273Z,4.78
2022-07-29T20:10:35.107Z,4.60
2022-07-29T20:13:19.006Z,4.70
2022-07-29T20:15:49.356Z,4.65
2022-07-29T20:18:20.363Z,4.68
2022-07-29T20:20:51.311Z,4.80
2022-07-29T20:23:25.083Z,4.50
2022-07-29T20:25:57.038Z,4.10
2022-07-29T20:28:30.786Z,4.63
2022-07-29T20:31:01.095Z,4.30
2022-07-29T20:34:00.918Z,4.50
2022-07-29T20:36:32.503Z,4.60
2022-07-29T20:39:03.889Z,4.30
2022-07-29T20:41:40.800Z,4.50
2022-07-29T20:44:27.316Z,4.10
2022-07-29T20:47:15.305Z,4.10
2022-07-29T20:50:05.104Z,4.43
2022-07-29T20:52:53.089Z,4.28
2022-07-29T20:55:27.398Z,4.30
2022-07-29T20:58:05.240Z,4.35
2022-07-29T21:00:39.684Z,3.97
2022-07-29T21:03:16.578Z,3.83
2022-07-29T21:05:49.176Z,4.28
2022-07-29T21:08:20.985Z,3.78
2022-07-29T21:10:52.609Z,3.47
2022-07-29T21:13:27.364Z,3.20
2022-07-29T21:16:09.332Z,3.03
2022-07-29T21:18:44.400Z,3.05
2022-07-29T21:24:04.743Z,2.50
2022-07-29T21:26:36.598Z,2.70
2022-07-29T21:29:07.378Z,2.50
2022-07-29T21:31:37.065Z,2.60
2022-07-29T21:34:07.650Z,2.95
2022-07-29T21:36:48.152Z,3.08
2022-07-29T21:39:20.379Z,2.88
2022-07-29T21:41:51.721Z,2.80
2022-07-29T21:44:24.923Z,3.30
2022-07-29T21:46:59.461Z,2.97
2022-07-29T21:49:29.238Z,2.80
2022-07-29T21:52:00.332Z,3.35
2022-07-29T21:54:32.031Z,3.08
2022-07-29T21:57:03.814Z,3.30
2022-07-29T21:59:37.269Z,3.30
2022-07-29T22:02:09.546Z,3.20
2022-07-29T22:04:42.149Z,2.90
2022-07-29T22:07:15.258Z,3.05
2022-07-29T22:09:49.747Z,3.10
2022-07-29T22:12:22.927Z,3.25
2022-07-29T22:14:52.846Z,2.95
2022-07-29T22:17:28.466Z,3.20
2022-07-29T22:20:01.611Z,3.13
2022-07-29T22:22:32.307Z,3.20
2022-07-29T22:25:02.448Z,3.05
2022-07-29T22:27:32.069Z,3.13
2022-07-29T22:30:03.101Z,3.70
2022-07-29T22:32:33.238Z,3.25
2022-07-29T22:35:06.980Z,3.50
2022-07-29T22:37:37.132Z,3.38
2022-07-29T22:40:09.328Z,3.35
2022-07-29T22:42:44.534Z,3.50
2022-07-29T22:45:17.556Z,3.38
2022-07-29T22:48:07.269Z,3.35
2022-07-29T22:50:37.389Z,3.63
2022-07-29T22:53:40.420Z,3.30
2022-07-29T22:56:21.312Z,3.40
2022-07-29T22:58:55.245Z,3.47
2022-07-29T23:01:24.955Z,3.50
2022-07-29T23:04:09.067Z,3.30
2022-07-29T23:06:47.073Z,3.10
2022-07-29T23:09:20.225Z,3.00
2022-07-29T23:11:53.052Z,3.70
2022-07-29T23:14:24.664Z,3.30
2022-07-29T23:16:56.073Z,3.28
2022-07-29T23:19:25.013Z,3.20
2022-07-29T23:21:55.899Z,3.40
2022-07-29T23:24:25.528Z,3.53
2022-07-29T23:26:58.751Z,3.25
2022-07-29T23:29:31.796Z,3.30
2022-07-29T23:32:05.643Z,3.20
2022-07-29T23:34:40.878Z,3.28
2022-07-29T23:37:22.063Z,3.17
2022-07-29T23:39:52.697Z,3.50
2022-07-29T23:42:24.348Z,3.25
2022-07-29T23:44:59.853Z,3.35
2022-07-29T23:47:31.161Z,3.42
2022-07-29T23:50:02.636Z,3.50
2022-07-29T23:52:34.355Z,3.20
2022-07-29T23:55:37.407Z,3.17
2022-07-29T23:57:57.662Z,3.25
